Time;durP1;ratioP1;P1;durP2;ratioP2;P2;SDS_P1;SDS_P2;PMS_P1;PMS_P2;Temp;Humidity;BMP_temperature;BMP_pressure;BME280_temperature;BME280_humidity;BME280_pressure;Samples;Min_cycle;Max_cycle;Signal;HPM_P1;HPM_P2
2022/09/04 00:01:02;;;;;;;10.55;4.95;;;;;;;14.16;95.26;95042.50;5132993;27;20572;-78
2022/09/04 00:03:39;;;;;;;8.45;5.15;;;;;;;14.15;95.30;95038.97;5132014;27;20237;-77
2022/09/04 00:06:12;;;;;;;8.13;4.97;;;;;;;14.23;94.89;95043.50;5132887;27;20193;-77
2022/09/04 00:08:56;;;;;;;8.80;5.47;;;;;;;14.23;94.45;95048.94;5133157;27;20613;-80
2022/09/04 00:11:36;;;;;;;8.73;4.85;;;;;;;14.14;95.00;95048.28;5133429;27;20181;-78
2022/09/04 00:14:09;;;;;;;8.68;4.93;;;;;;;14.21;94.87;95040.31;5132846;27;20181;-78
2022/09/04 00:16:42;;;;;;;9.02;4.47;;;;;;;14.27;94.36;95045.56;5133249;27;20677;-78
2022/09/04 00:19:17;;;;;;;5.60;4.18;;;;;;;14.35;94.02;95044.66;5132656;27;20192;-78
2022/09/04 00:21:50;;;;;;;6.57;4.05;;;;;;;14.36;93.57;95046.22;5132813;27;20185;-78
2022/09/04 00:24:19;;;;;;;6.20;4.07;;;;;;;14.41;93.06;95048.78;5132707;27;20196;-78
2022/09/04 00:26:57;;;;;;;7.43;4.68;;;;;;;14.41;92.71;95037.88;5132660;27;20608;-78
2022/09/04 00:29:35;;;;;;;6.35;3.95;;;;;;;14.26;92.82;95043.97;5130850;27;20229;-78
2022/09/04 00:32:14;;;;;;;7.55;4.68;;;;;;;14.34;93.23;95052.03;5112395;28;20194;-78
2022/09/04 00:34:59;;;;;;;5.75;3.72;;;;;;;14.26;93.36;95057.59;5111683;28;20637;-78
2022/09/04 00:37:32;;;;;;;6.80;4.43;;;;;;;14.21;94.08;95067.56;5111998;28;20229;-78
2022/09/04 00:40:04;;;;;;;8.43;4.80;;;;;;;14.20;94.47;95060.56;5111913;28;20214;-78
2022/09/04 00:42:46;;;;;;;6.28;3.90;;;;;;;14.15;94.65;95051.81;5112537;28;20197;-77
2022/09/04 00:45:26;;;;;;;6.95;4.55;;;;;;;14.14;94.62;95056.44;5110801;28;20672;-78
2022/09/04 00:48:20;;;;;;;6.32;4.20;;;;;;;14.15;94.53;95055.31;5128523;27;20193;-77
2022/09/04 00:51:02;;;;;;;9.27;4.85;;;;;;;14.22;94.12;95058.25;5132349;27;20283;-78
2022/09/04 00:53:59;;;;;;;6.95;4.63;;;;;;;14.23;93.68;95051.69;5132810;27;20185;-78
2022/09/04 00:56:55;;;;;;;7.05;4.22;;;;;;;14.22;93.94;95047.38;5132109;27;20208;-78
2022/09/04 00:59:38;;;;;;;8.63;4.93;;;;;;;14.11;94.24;95051.69;5131514;27;20201;-78
2022/09/04 01:02:12;;;;;;;8.52;4.22;;;;;;;14.07;94.46;95045.34;5132512;27;20611;-77
2022/09/04 01:04:45;;;;;;;9.63;5.22;;;;;;;13.95;94.95;95041.78;5131890;27;20217;-78
2022/09/04 01:07:30;;;;;;;7.72;4.63;;;;;;;13.97;95.18;95044.97;5132579;27;20189;-77
2022/09/04 01:10:24;;;;;;;7.82;5.20;;;;;;;13.93;95.51;95050.31;5132004;27;20193;-78
2022/09/04 01:12:57;;;;;;;7.88;5.32;;;;;;;13.85;95.89;95054.72;5123722;27;20200;-77
2022/09/04 01:15:31;;;;;;;10.60;5.10;;;;;;;13.91;96.33;95051.78;5131861;27;20496;-78
2022/09/04 01:18:06;;;;;;;10.23;4.90;;;;;;;13.96;95.70;95057.78;5131629;27;20266;-77
2022/09/04 01:20:48;;;;;;;8.00;4.95;;;;;;;14.07;94.98;95056.22;5131763;27;20688;-77
2022/09/04 01:23:30;;;;;;;8.05;5.32;;;;;;;14.05;94.94;95063.94;5132119;27;20194;-77
2022/09/04 01:26:07;;;;;;;10.02;5.75;;;;;;;13.96;95.56;95049.63;5131558;27;20213;-77
2022/09/04 01:28:44;;;;;;;13.07;5.53;;;;;;;13.94;95.44;95046.44;5131473;27;20191;-77
2022/09/04 01:31:20;;;;;;;7.95;5.65;;;;;;;13.93;95.15;95049.50;5114437;27;20221;-77
2022/09/04 01:34:00;;;;;;;8.85;4.57;;;;;;;13.91;94.34;95049.84;5111132;28;20243;-79
2022/09/04 01:36:36;;;;;;;7.40;4.53;;;;;;;13.81;94.23;95037.44;5110566;28;20243;-77
2022/09/04 01:39:04;;;;;;;8.20;4.68;;;;;;;13.78;94.47;95038.13;5110757;28;20224;-77
2022/09/04 01:41:38;;;;;;;8.27;4.38;;;;;;;13.79;95.15;95038.94;5110777;28;20205;-78
2022/09/04 01:44:07;;;;;;;7.43;5.20;;;;;;;13.81;94.80;95031.19;5111117;28;20177;-77
2022/09/04 01:46:48;;;;;;;7.28;4.25;;;;;;;13.80;94.39;95018.75;5115417;27;20185;-77
2022/09/04 01:49:25;;;;;;;8.90;5.07;;;;;;;13.84;93.90;95027.81;5131067;27;20185;-77
2022/09/04 01:52:01;;;;;;;8.82;4.40;;;;;;;13.82;93.85;95032.78;5131498;27;20185;-77
2022/09/04 01:54:46;;;;;;;6.80;4.72;;;;;;;13.79;94.21;95034.28;5131402;27;20608;-77
2022/09/04 01:57:27;;;;;;;7.10;5.00;;;;;;;13.80;94.37;95033.13;5130800;27;20228;-77
2022/09/04 02:00:06;;;;;;;9.27;5.78;;;;;;;13.78;95.13;95029.19;5130706;27;20216;-78
2022/09/04 02:02:44;;;;;;;9.40;5.50;;;;;;;13.81;95.65;95034.72;5131482;27;20192;-78
2022/09/04 02:05:18;;;;;;;10.95;5.80;;;;;;;13.81;96.04;95032.00;5130935;27;20572;-78
2022/09/04 02:07:49;;;;;;;9.85;6.10;;;;;;;13.80;96.26;95029.63;5130642;27;20184;-78
2022/09/04 02:10:28;;;;;;;10.63;6.45;;;;;;;13.71;96.64;95027.00;5130937;27;20193;-78
2022/09/04 02:13:07;;;;;;;9.75;5.32;;;;;;;13.72;96.75;95022.34;5131354;27;20276;-78
2022/09/04 02:15:42;;;;;;;10.02;6.35;;;;;;;13.64;97.96;95020.53;5130529;27;20647;-78
2022/09/04 02:18:19;;;;;;;7.07;5.05;;;;;;;13.57;97.56;95025.72;5129994;27;20583;-78
2022/09/04 02:20:56;;;;;;;10.38;5.60;;;;;;;13.61;97.41;95021.19;5130531;27;20250;-78
2022/09/04 02:23:34;;;;;;;7.80;5.25;;;;;;;13.69;96.23;95031.97;5131257;27;20185;-78
2022/09/04 02:26:09;;;;;;;10.02;5.40;;;;;;;13.63;96.29;95018.94;5130506;27;20590;-78
2022/09/04 02:28:49;;;;;;;6.35;4.95;;;;;;;13.58;96.09;95021.84;5131076;27;20185;-78
2022/09/04 02:31:27;;;;;;;7.97;5.45;;;;;;;13.59;95.91;95023.44;5111739;28;20712;-78
2022/09/04 02:34:03;;;;;;;8.60;4.72;;;;;;;13.53;96.31;95025.56;5109317;28;20182;-78
2022/09/04 02:36:36;;;;;;;6.47;4.28;;;;;;;13.41;96.23;95009.22;5110038;28;20189;-78
2022/09/04 02:39:15;;;;;;;10.05;5.07;;;;;;;13.42;96.43;95017.03;5109394;28;20639;-78
2022/09/04 02:41:50;;;;;;;6.82;4.03;;;;;;;13.40;96.21;95016.59;5110335;28;20186;-78
2022/09/04 02:44:30;;;;;;;7.38;5.20;;;;;;;13.40;96.33;95019.31;5110035;28;20300;-78
2022/09/04 02:47:06;;;;;;;7.05;4.60;;;;;;;13.45;95.87;95030.00;5117867;28;20189;-78
2022/09/04 02:49:47;;;;;;;10.98;5.43;;;;;;;13.44;95.42;95022.94;5130163;28;20204;-78
2022/09/04 02:52:25;;;;;;;9.85;4.90;;;;;;;13.42;95.62;95018.97;5130431;28;20272;-78
2022/09/04 02:55:16;;;;;;;8.18;5.03;;;;;;;13.38;95.87;95024.31;5130641;28;20196;-78
2022/09/04 02:57:56;;;;;;;9.15;5.38;;;;;;;13.33;96.32;95026.44;5130650;28;20224;-78
2022/09/04 03:00:38;;;;;;;10.93;5.68;;;;;;;13.34;96.63;95026.09;5130187;28;20246;-78
2022/09/04 03:03:09;;;;;;;8.32;5.22;;;;;;;13.29;96.44;95026.31;5130501;28;20184;-78
2022/09/04 03:05:42;;;;;;;11.00;5.70;;;;;;;13.24;96.58;95037.41;5130223;27;20629;-78
2022/09/04 03:08:16;;;;;;;8.48;4.25;;;;;;;13.18;96.77;95041.44;5133071;27;20237;-78
2022/09/04 03:10:48;;;;;;;7.10;4.40;;;;;;;13.10;97.83;95048.53;5134222;27;20640;-78
2022/09/04 03:13:23;;;;;;;6.70;4.40;;;;;;;13.04;98.69;95046.34;5134659;27;20189;-78
2022/09/04 03:15:56;;;;;;;9.00;5.25;;;;;;;13.14;98.37;95045.94;5134636;27;20193;-78
2022/09/04 03:18:30;;;;;;;8.32;5.03;;;;;;;13.20;97.84;95050.06;5134498;27;20220;-78
2022/09/04 03:21:00;;;;;;;7.88;4.53;;;;;;;13.18;96.93;95046.09;5133947;27;20196;-78
2022/09/04 03:23:36;;;;;;;7.80;4.68;;;;;;;13.15;97.73;95044.84;5134079;27;20191;-78
2022/09/04 03:26:21;;;;;;;8.48;5.30;;;;;;;13.24;97.86;95045.56;5134295;27;20224;-78
2022/09/04 03:29:00;;;;;;;13.02;5.50;;;;;;;13.23;98.39;95041.25;5132936;27;20747;-78
2022/09/04 03:31:37;;;;;;;11.52;5.50;;;;;;;13.26;98.37;95040.56;5114633;27;20190;-78
2022/09/04 03:34:26;;;;;;;10.57;6.30;;;;;;;13.33;98.45;95032.69;5114079;28;20553;-77
2022/09/04 03:37:05;;;;;;;7.60;4.93;;;;;;;13.36;97.84;95037.44;5112652;28;20201;-77
2022/09/04 03:39:41;;;;;;;8.75;5.00;;;;;;;13.40;97.05;95046.53;5111921;28;20621;-77
2022/09/04 03:42:16;;;;;;;13.55;6.72;;;;;;;13.38;96.65;95051.53;5112930;28;20186;-77
2022/09/04 03:44:54;;;;;;;7.30;4.55;;;;;;;13.37;97.14;95039.06;5113036;28;20185;-77
2022/09/04 03:47:33;;;;;;;8.40;5.00;;;;;;;13.49;95.88;95049.97;5124540;27;20644;-77
2022/09/04 03:50:11;;;;;;;7.50;4.68;;;;;;;13.49;95.90;95058.13;5134078;27;20593;-79
2022/09/04 03:52:47;;;;;;;9.98;5.43;;;;;;;13.56;95.74;95062.22;5133102;27;20191;-77
2022/09/04 03:55:47;;;;;;;8.60;5.28;;;;;;;13.69;94.81;95061.13;5133888;27;20237;-78
2022/09/04 03:58:23;;;;;;;7.10;4.45;;;;;;;13.60;94.84;95074.03;5133636;27;20213;-78
2022/09/04 04:01:02;;;;;;;9.30;4.80;;;;;;;13.58;95.58;95081.75;5133595;27;20241;-77
2022/09/04 04:03:57;;;;;;;10.35;5.15;;;;;;;13.67;95.40;95068.84;5132866;27;20647;-77
2022/09/04 04:06:33;;;;;;;7.32;4.15;;;;;;;13.64;95.35;95074.97;5133137;27;20597;-79
2022/09/04 04:09:33;;;;;;;8.65;4.85;;;;;;;13.73;95.80;95083.84;5133183;27;20189;-77
2022/09/04 04:12:11;;;;;;;9.10;4.88;;;;;;;13.86;95.26;95099.88;5132870;27;20728;-77
2022/09/04 04:14:58;;;;;;;6.95;4.55;;;;;;;13.78;95.03;95113.59;5133070;27;20614;-78
2022/09/04 04:17:43;;;;;;;11.02;5.45;;;;;;;13.70;95.12;95112.53;5132995;27;20734;-78
2022/09/04 04:20:28;;;;;;;10.27;5.50;;;;;;;13.62;96.22;95120.78;5132685;27;20185;-78
2022/09/04 04:23:12;;;;;;;10.55;6.00;;;;;;;13.78;95.92;95113.59;5133012;27;20289;-78
2022/09/04 04:25:49;;;;;;;11.98;6.88;;;;;;;13.80;96.40;95128.44;5132860;27;20225;-78
2022/09/04 04:28:37;;;;;;;13.30;6.32;;;;;;;14.00;95.50;95121.34;5133241;27;20189;-78
2022/09/04 04:31:14;;;;;;;11.88;6.93;;;;;;;14.00;95.29;95120.56;5116918;27;20274;-79
2022/09/04 04:33:54;;;;;;;16.98;7.22;;;;;;;14.28;94.42;95123.47;5112249;28;20254;-78
2022/09/04 04:36:32;;;;;;;11.75;6.57;;;;;;;14.43;93.65;95128.28;5112088;28;20636;-80
2022/09/04 04:39:14;;;;;;;13.38;7.30;;;;;;;14.72;92.75;95138.19;5111632;28;20229;-79
2022/09/04 04:42:04;;;;;;;11.02;6.70;;;;;;;14.76;92.02;95131.69;5111344;28;20189;-78
2022/09/04 04:47:47;;;;;;;16.30;6.85;;;;;;;14.87;90.93;95121.91;5124255;27;20200;-78
2022/09/04 04:50:21;;;;;;;13.60;7.57;;;;;;;14.88;90.97;95120.78;5132756;27;20535;-78
2022/09/04 04:52:57;;;;;;;11.90;7.38;;;;;;;15.25;90.15;95132.44;5132633;27;20234;-79
2022/09/04 04:55:37;;;;;;;13.35;7.05;;;;;;;15.38;89.51;95141.38;5132158;27;20192;-79
2022/09/04 04:58:43;;;;;;;10.90;6.38;;;;;;;15.58;89.28;95132.25;5132029;27;20325;-79
2022/09/04 05:01:19;;;;;;;13.77;7.40;;;;;;;17.41;82.96;95136.47;5089950;27;20608;-79
2022/09/04 05:03:59;;;;;;;11.25;7.20;;;;;;;19.12;76.71;95130.31;5131456;27;20625;-79
2022/09/04 05:06:34;;;;;;;12.07;8.43;;;;;;;21.11;68.16;95120.78;5132359;27;20184;-79
2022/09/04 05:09:13;;;;;;;10.13;6.85;;;;;;;22.04;65.98;95108.31;5132417;27;20185;-79
2022/09/04 05:11:50;;;;;;;8.65;5.47;;;;;;;23.24;60.24;95094.66;5132027;27;20268;-78
2022/09/04 05:14:29;;;;;;;8.57;5.78;;;;;;;23.82;59.03;95078.72;5132012;27;20283;-79
2022/09/04 05:17:05;;;;;;;7.47;5.63;;;;;;;23.70;58.27;95088.25;5131876;27;20277;-79
2022/09/04 05:19:38;;;;;;;10.20;7.85;;;;;;;23.96;56.82;95084.97;5131976;27;20224;-79
2022/09/04 05:22:13;;;;;;;9.00;6.38;;;;;;;24.04;55.04;95086.53;5131683;27;20189;-78
2022/09/04 05:24:54;;;;;;;10.00;6.40;;;;;;;23.36;57.02;95097.03;5131623;27;20220;-79
2022/09/04 05:27:39;;;;;;;11.20;8.57;;;;;;;24.15;54.75;95107.84;5131701;27;20192;-78
2022/09/04 05:30:10;;;;;;;11.38;8.90;;;;;;;22.79;58.53;95118.38;5123596;27;20278;-78
2022/09/04 05:32:46;;;;;;;12.43;9.20;;;;;;;22.63;59.50;95113.19;5111407;28;20198;-79
2022/09/04 05:35:17;;;;;;;11.50;8.70;;;;;;;23.00;58.40;95101.78;5110973;28;20185;-77
2022/09/04 05:37:56;;;;;;;12.73;8.30;;;;;;;22.34;60.35;95098.56;5111371;28;20246;-78
2022/09/04 05:40:29;;;;;;;10.95;8.48;;;;;;;21.95;61.24;95109.44;5110773;28;20696;-79
2022/09/04 05:43:08;;;;;;;10.95;8.45;;;;;;;22.98;58.11;95109.69;5111006;28;20209;-77
2022/09/04 05:45:49;;;;;;;12.35;8.13;;;;;;;22.77;59.52;95125.47;5110964;28;20204;-79
2022/09/04 05:48:24;;;;;;;11.73;8.05;;;;;;;23.63;56.84;95118.72;5130081;27;20278;-78
2022/09/04 05:51:12;;;;;;;9.35;7.45;;;;;;;24.72;53.53;95109.13;5131330;27;20552;-79
2022/09/04 05:54:24;;;;;;;9.00;7.50;;;;;;;25.85;50.61;95100.97;5131400;27;20193;-79
2022/09/04 05:57:11;;;;;;;11.55;7.68;;;;;;;25.13;51.89;95102.88;5047123;28;20780;-79
2022/09/04 06:00:01;;;;;;;13.02;7.60;;;;;;;24.35;53.64;95109.72;5131156;27;20228;-79
2022/09/04 06:02:56;;;;;;;10.70;8.40;;;;;;;24.42;53.75;95106.16;5131695;27;20280;-79
2022/09/04 06:05:29;;;;;;;10.18;7.63;;;;;;;24.86;52.68;95083.28;5130864;27;20696;-79
2022/09/04 06:08:06;;;;;;;11.85;8.50;;;;;;;25.88;50.70;95072.38;5131396;27;20245;-79
2022/09/04 06:10:43;;;;;;;9.63;7.55;;;;;;;24.84;52.32;95079.34;5131317;27;20189;-79
2022/09/04 06:13:28;;;;;;;16.00;7.68;;;;;;;26.07;50.06;95079.31;5131284;27;20528;-79
2022/09/04 06:16:06;;;;;;;13.70;7.82;;;;;;;25.36;51.03;95080.88;5130778;27;20529;-78
2022/09/04 06:18:52;;;;;;;11.18;8.85;;;;;;;25.13;51.29;95083.47;5131028;27;20204;-78
2022/09/04 06:21:47;;;;;;;8.63;7.70;;;;;;;25.94;50.35;95087.41;5130882;27;20188;-80
2022/09/04 06:24:33;;;;;;;9.75;8.55;;;;;;;26.05;49.36;95082.50;5130860;27;20708;-80
2022/09/04 06:27:24;;;;;;;13.45;8.93;;;;;;;26.25;49.29;95081.81;5130438;27;20257;-79
2022/09/04 06:30:11;;;;;;;10.95;8.50;;;;;;;26.71;47.76;95072.88;5125129;27;20290;-78
2022/09/04 06:32:55;;;;;;;11.52;8.77;;;;;;;26.31;48.96;95077.41;5110901;28;20720;-79
2022/09/04 06:35:35;;;;;;;10.38;8.50;;;;;;;27.13;47.92;95076.97;5110375;28;20199;-79
2022/09/04 06:38:19;;;;;;;12.95;10.07;;;;;;;27.44;45.95;95075.63;5110139;28;20190;-79
2022/09/04 06:40:57;;;;;;;12.73;9.52;;;;;;;26.82;46.29;95074.25;5110279;28;20212;-79
2022/09/04 06:43:35;;;;;;;11.73;9.65;;;;;;;26.33;47.67;95081.34;5110097;28;20194;-79
2022/09/04 06:46:15;;;;;;;11.55;9.05;;;;;;;25.77;49.19;95078.06;5109483;28;20193;-79
2022/09/04 06:48:52;;;;;;;11.13;9.40;;;;;;;26.63;48.12;95063.84;5130756;28;20185;-78
2022/09/04 06:51:33;;;;;;;14.13;9.80;;;;;;;26.43;48.11;95085.97;5130693;28;20241;-77
2022/09/04 06:54:10;;;;;;;11.95;8.20;;;;;;;27.13;46.91;95093.66;5130989;28;20234;-78
2022/09/04 06:57:01;;;;;;;12.35;9.10;;;;;;;26.92;47.00;95085.66;5130237;28;20184;-79
2022/09/04 06:59:47;;;;;;;13.70;10.40;;;;;;;26.86;46.97;95080.56;5129906;28;20227;-77
2022/09/04 07:02:31;;;;;;;13.68;10.27;;;;;;;24.75;51.58;95091.66;5130779;28;20189;-78
2022/09/04 07:05:08;;;;;;;15.45;10.23;;;;;;;24.93;52.40;95085.19;5130175;27;20269;-79
2022/09/04 07:07:43;;;;;;;15.32;10.73;;;;;;;24.89;52.04;95078.88;5129858;28;20593;-76
2022/09/04 07:10:14;;;;;;;13.70;10.85;;;;;;;24.36;54.07;95080.06;5130563;28;20257;-79
2022/09/04 07:13:05;;;;;;;17.00;10.60;;;;;;;25.22;52.96;95075.47;5130052;28;20720;-78
2022/09/04 07:16:19;;;;;;;16.25;11.35;;;;;;;24.85;53.58;95083.69;5130035;28;20612;-77
2022/09/04 07:19:07;;;;;;;15.52;10.95;;;;;;;23.20;56.57;95093.88;5130474;28;20266;-78
2022/09/04 07:21:40;;;;;;;16.27;9.40;;;;;;;22.52;59.44;95093.06;5130482;28;20200;-79
2022/09/04 07:24:17;;;;;;;13.02;9.30;;;;;;;22.48;59.37;95097.00;5130569;27;20246;-78
2022/09/04 07:26:51;;;;;;;12.32;8.77;;;;;;;22.97;58.61;95091.50;5130403;28;20610;-78
2022/09/04 07:29:33;;;;;;;13.27;8.02;;;;;;;23.45;57.42;95081.97;5128277;28;20361;-78
2022/09/04 07:32:06;;;;;;;10.02;7.55;;;;;;;24.12;56.72;95083.72;5109297;28;20550;-79
2022/09/04 07:34:43;;;;;;;10.68;8.50;;;;;;;23.69;55.69;95081.94;5109282;28;20182;-78
2022/09/04 07:37:26;;;;;;;11.25;8.20;;;;;;;22.59;58.98;95092.28;5109170;28;20200;-79
2022/09/04 07:40:03;;;;;;;11.02;7.70;;;;;;;22.65;58.86;95093.47;5109659;28;20261;-78
2022/09/04 07:42:37;;;;;;;8.75;7.10;;;;;;;23.20;57.76;95107.72;5109686;28;20194;-78
2022/09/04 07:45:11;;;;;;;11.48;7.88;;;;;;;22.62;59.13;95114.38;5109535;28;20255;-78
2022/09/04 07:47:43;;;;;;;10.10;7.47;;;;;;;22.27;60.41;95122.59;5122668;28;20643;-78
2022/09/04 07:50:18;;;;;;;10.57;7.60;;;;;;;22.84;58.50;95114.41;5130171;28;20193;-78
2022/09/04 07:53:01;;;;;;;9.93;7.55;;;;;;;23.10;57.43;95116.78;5129966;27;20249;-79
2022/09/04 07:55:37;;;;;;;9.05;7.25;;;;;;;23.95;55.03;95113.84;5133184;27;20185;-79
2022/09/04 07:58:44;;;;;;;8.07;6.43;;;;;;;24.40;54.43;95114.06;5133445;27;20642;-79
2022/09/04 08:01:26;;;;;;;9.93;6.63;;;;;;;23.92;55.18;95117.41;5128127;27;20200;-79
2022/09/04 08:04:22;;;;;;;8.68;7.25;;;;;;;23.65;56.27;95113.56;5133550;27;20228;-79
2022/09/04 08:06:57;;;;;;;10.60;7.32;;;;;;;22.15;60.06;95117.41;5129888;27;20201;-78
2022/09/04 08:10:00;;;;;;;9.77;6.72;;;;;;;22.23;60.15;95132.84;5132991;27;20292;-78
2022/09/04 08:13:00;;;;;;;10.07;7.53;;;;;;;22.70;60.31;95132.53;5133263;27;20202;-78
2022/09/04 08:15:40;;;;;;;11.32;7.00;;;;;;;22.61;60.13;95134.91;5132798;27;20193;-77
2022/09/04 08:18:20;;;;;;;8.55;6.82;;;;;;;22.46;58.92;95126.97;5132914;27;20237;-79
2022/09/04 08:20:55;;;;;;;9.18;7.53;;;;;;;22.95;59.38;95126.28;5132775;27;20317;-78
2022/09/04 08:23:46;;;;;;;10.27;7.43;;;;;;;22.87;58.66;95119.16;5133463;27;20195;-78
2022/09/04 08:26:19;;;;;;;10.70;6.85;;;;;;;22.65;58.92;95130.16;5132613;27;20189;-78
2022/09/04 08:29:07;;;;;;;7.85;6.15;;;;;;;22.51;58.44;95135.66;5132949;27;20189;-78
2022/09/04 08:31:41;;;;;;;8.02;6.43;;;;;;;22.21;60.35;95138.75;5112307;27;20644;-78
2022/09/04 08:34:41;;;;;;;9.15;7.25;;;;;;;22.45;58.96;95134.47;5112276;28;20525;-78
2022/09/04 08:37:20;;;;;;;8.48;6.55;;;;;;;22.67;58.34;95127.81;5111443;28;20640;-79
2022/09/04 08:40:00;;;;;;;7.85;6.15;;;;;;;22.82;58.36;95123.13;5110840;28;20225;-78
2022/09/04 08:43:04;;;;;;;9.23;7.15;;;;;;;22.29;59.50;95120.22;5111738;28;20694;-76
2022/09/04 08:45:53;;;;;;;9.13;7.00;;;;;;;22.45;59.15;95120.66;5080277;28;20201;-78
2022/09/04 08:49:00;;;;;;;10.32;7.15;;;;;;;22.19;59.79;95134.78;5129315;27;20224;-78
2022/09/04 08:52:17;;;;;;;9.75;6.65;;;;;;;22.54;58.00;95123.06;5097609;27;20203;-79
2022/09/04 08:55:17;;;;;;;8.60;6.90;;;;;;;22.82;56.27;95125.09;5132154;27;20188;-77
2022/09/04 08:58:25;;;;;;;7.72;6.00;;;;;;;22.86;56.22;95109.28;5131661;27;20254;-78
2022/09/04 09:01:21;;;;;;;5.63;4.72;;;;;;;22.71;53.97;95100.16;5132005;27;20221;-80
2022/09/04 09:04:07;;;;;;;6.97;5.10;;;;;;;22.90;54.03;95107.31;5132309;27;20305;-77
2022/09/04 09:07:02;;;;;;;8.98;5.40;;;;;;;23.12;54.23;95108.09;5134948;27;20644;-75
2022/09/04 09:10:02;;;;;;;8.00;4.72;;;;;;;23.28;53.67;95103.72;5135884;27;20713;-78
2022/09/04 09:13:05;;;;;;;5.38;4.53;;;;;;;23.63;52.51;95104.88;5132058;27;20580;-76
2022/09/04 09:15:59;;;;;;;5.82;4.45;;;;;;;24.17;52.94;95111.00;5135293;27;20238;-77
2022/09/04 09:18:37;;;;;;;5.15;4.60;;;;;;;24.28;52.11;95100.69;5135522;27;20653;-77
2022/09/04 09:21:11;;;;;;;7.18;5.03;;;;;;;24.00;51.64;95101.59;5134516;27;20228;-76
2022/09/04 09:24:13;;;;;;;7.18;5.50;;;;;;;24.07;52.63;95107.88;5135215;27;20202;-77
2022/09/04 09:27:01;;;;;;;7.70;5.25;;;;;;;23.96;52.45;95100.81;5101718;27;20196;-76
2022/09/04 09:30:02;;;;;;;8.07;5.80;;;;;;;23.39;54.57;95101.72;5129038;27;20281;-76
2022/09/04 09:33:07;;;;;;;8.65;5.63;;;;;;;23.15;53.63;95096.25;5106679;28;20194;-78
2022/09/04 09:36:14;;;;;;;7.82;5.75;;;;;;;23.34;54.73;95093.88;5111088;28;20334;-77
2022/09/04 09:39:33;;;;;;;6.57;5.35;;;;;;;23.67;53.78;95091.81;5110566;28;20213;-77
2022/09/04 09:42:36;;;;;;;8.48;5.63;;;;;;;23.64;53.25;95087.09;5110079;28;20233;-78
2022/09/04 09:45:26;;;;;;;7.75;5.30;;;;;;;23.63;52.91;95086.31;5110461;28;20216;-77
2022/09/04 09:48:37;;;;;;;7.82;5.65;;;;;;;24.20;53.29;95082.47;5126949;27;20356;-79
2022/09/04 09:51:55;;;;;;;5.93;4.90;;;;;;;24.18;51.50;95068.28;5119972;27;20211;-78
2022/09/04 09:55:04;;;;;;;6.20;5.13;;;;;;;24.06;51.62;95084.13;5110198;27;20226;-78
2022/09/04 09:58:18;;;;;;;4.55;4.07;;;;;;;24.28;50.44;95061.91;5072253;27;20206;-79
2022/09/04 10:01:05;;;;;;;9.55;5.00;;;;;;;24.13;51.05;95065.94;5130586;27;20270;-78
2022/09/04 10:04:10;;;;;;;8.65;4.65;;;;;;;24.31;51.00;95061.13;5130785;27;20262;-77
2022/09/04 10:07:18;;;;;;;6.53;5.15;;;;;;;24.72;50.39;95064.00;5130807;27;20677;-79
2022/09/04 10:10:27;;;;;;;6.97;4.95;;;;;;;25.16;50.80;95071.53;5129278;27;20208;-78
2022/09/04 10:13:33;;;;;;;6.43;5.53;;;;;;;24.75;49.85;95069.50;5130682;27;20230;-79
2022/09/04 10:16:23;;;;;;;6.10;4.72;;;;;;;24.85;49.80;95061.50;5131339;27;20223;-80
2022/09/04 10:19:09;;;;;;;8.43;5.45;;;;;;;24.87;48.98;95056.34;5131200;27;20210;-80
2022/09/04 10:22:04;;;;;;;7.75;5.28;;;;;;;25.47;48.80;95048.25;5131029;27;20192;-79
2022/09/04 10:25:12;;;;;;;6.45;5.28;;;;;;;25.79;47.79;95047.91;5130489;27;20224;-78
2022/09/04 10:28:04;;;;;;;7.07;5.05;;;;;;;25.96;48.75;95035.03;5130749;27;20196;-79
2022/09/04 10:30:48;;;;;;;5.75;5.03;;;;;;;26.05;48.69;95043.63;5118967;27;20267;-80
2022/09/04 10:33:28;;;;;;;5.32;4.70;;;;;;;25.67;48.93;95036.56;5109753;28;20690;-79
2022/09/04 10:36:08;;;;;;;7.10;5.15;;;;;;;25.32;48.61;95041.28;5109670;28;20190;-79
2022/09/04 10:40:34;;;;;;;8.60;5.43;;;;;;;25.07;49.51;95046.28;5109831;28;20217;-79
2022/09/04 10:41:41;;;;;;;6.93;5.60;;;;;;;24.82;50.43;95043.72;5109500;28;20214;-79
2022/09/04 10:44:29;;;;;;;8.20;6.68;;;;;;;25.11;49.88;95041.50;5110223;28;20197;-79
2022/09/04 10:47:09;;;;;;;9.15;5.30;;;;;;;24.69;51.04;95040.66;5117355;28;20193;-78
2022/09/04 10:50:03;;;;;;;6.30;5.45;;;;;;;25.05;50.18;95032.03;5130602;28;20865;-80
2022/09/04 10:53:02;;;;;;;9.65;6.10;;;;;;;25.27;51.06;95025.09;5119299;28;20557;-77
2022/09/04 10:55:56;;;;;;;6.93;5.55;;;;;;;25.68;47.80;95024.28;5130319;28;20242;-78
2022/09/04 10:58:40;;;;;;;7.70;5.93;;;;;;;24.70;50.06;95025.59;5120197;28;20196;-79
2022/09/04 11:01:53;;;;;;;5.93;5.25;;;;;;;25.26;49.33;95020.75;5130132;28;20216;-79
2022/09/04 11:04:59;;;;;;;6.13;4.82;;;;;;;25.74;48.87;95011.50;5130181;27;20630;-80
2022/09/04 11:08:00;;;;;;;7.53;5.20;;;;;;;26.25;47.22;94995.72;5089336;28;20573;-80
2022/09/04 11:10:38;;;;;;;8.60;5.38;;;;;;;26.70;47.80;94988.69;5130528;28;20800;-81
2022/09/04 11:13:30;;;;;;;7.85;5.63;;;;;;;26.24;47.85;94991.38;5130142;28;20208;-78
2022/09/04 11:16:21;;;;;;;6.43;5.10;;;;;;;25.83;49.00;94997.91;5130776;28;20246;-79
2022/09/04 11:19:09;;;;;;;5.65;4.72;;;;;;;25.64;48.43;95001.31;5127416;28;20608;-80
2022/09/04 11:22:21;;;;;;;5.22;4.55;;;;;;;25.78;47.71;95006.69;5130259;28;20602;-80
2022/09/04 11:25:36;;;;;;;6.07;4.50;;;;;;;26.06;47.48;94995.19;5045915;28;20216;-79
2022/09/04 11:28:39;;;;;;;5.25;4.50;;;;;;;26.36;46.26;94988.06;5130112;27;20541;-78
2022/09/04 11:31:21;;;;;;;5.53;4.68;;;;;;;26.66;45.18;94976.81;5117873;27;20701;-82
2022/09/04 11:34:32;;;;;;;6.45;4.68;;;;;;;27.15;45.21;94985.53;5113840;28;20200;-81
2022/09/04 11:37:47;;;;;;;6.15;4.75;;;;;;;26.66;44.88;94982.38;5085383;28;20305;-81
2022/09/04 11:40:49;;;;;;;5.90;4.47;;;;;;;26.60;43.44;94986.88;5113303;28;20213;-79
2022/09/04 11:43:54;;;;;;;4.35;3.95;;;;;;;26.34;46.31;94988.47;5112529;28;20205;-79
2022/09/04 11:46:49;;;;;;;5.43;4.50;;;;;;;26.34;44.93;94980.13;5115849;27;20202;-79
2022/09/04 11:49:45;;;;;;;7.38;4.88;;;;;;;27.17;44.10;94977.56;5134027;27;20279;-82
2022/09/04 11:52:27;;;;;;;6.50;4.30;;;;;;;27.82;43.32;94977.88;5133950;27;20196;-81
2022/09/04 11:55:23;;;;;;;5.78;3.97;;;;;;;26.39;45.19;94978.84;5133722;27;20275;-76
2022/09/04 11:58:15;;;;;;;4.40;3.92;;;;;;;25.96;46.88;94975.91;5133749;27;20189;-77
2022/09/04 12:00:56;;;;;;;4.85;4.38;;;;;;;25.83;47.37;94972.94;5133364;27;20277;-77
2022/09/04 12:03:48;;;;;;;6.75;4.55;;;;;;;26.05;47.19;94965.84;5133405;27;20224;-79
2022/09/04 12:06:36;;;;;;;6.93;4.57;;;;;;;26.40;46.03;94952.66;5133278;27;20190;-77
2022/09/04 12:09:44;;;;;;;6.85;4.35;;;;;;;26.21;46.42;94951.34;5133169;27;20674;-77
2022/09/04 12:12:31;;;;;;;5.35;4.43;;;;;;;26.46;45.54;94950.97;5049261;28;20626;-79
2022/09/04 12:15:32;;;;;;;4.85;4.32;;;;;;;26.38;46.75;94949.50;5131270;27;20731;-78
2022/09/04 12:18:32;;;;;;;7.75;4.55;;;;;;;26.32;45.94;94951.19;5133051;27;20647;-79
2022/09/04 12:21:13;;;;;;;7.25;4.35;;;;;;;26.72;45.22;94941.78;5132430;27;20328;-79
2022/09/04 12:24:20;;;;;;;6.63;4.50;;;;;;;26.73;45.76;94948.91;5132773;27;20181;-80
2022/09/04 12:27:14;;;;;;;5.32;4.70;;;;;;;26.79;45.35;94936.09;5048322;28;20204;-79
2022/09/04 12:29:58;;;;;;;6.25;4.25;;;;;;;26.34;45.79;94948.78;5128043;27;20768;-76
2022/09/04 12:33:04;;;;;;;6.10;4.78;;;;;;;26.25;45.33;94948.50;5111686;28;20621;-79
2022/09/04 12:36:09;;;;;;;5.60;4.50;;;;;;;26.55;45.82;94940.88;5112215;28;20185;-81
2022/09/04 12:39:23;;;;;;;7.15;4.90;;;;;;;26.62;44.67;94941.97;5112172;28;20374;-79
2022/09/04 12:42:01;;;;;;;5.13;4.35;;;;;;;26.51;44.35;94947.72;5075564;28;20239;-80
2022/09/04 12:44:42;;;;;;;5.72;4.53;;;;;;;26.03;45.03;94951.59;5111712;28;20624;-78
2022/09/04 12:47:22;;;;;;;7.78;4.20;;;;;;;26.34;44.67;94943.25;5121916;27;20554;-80
2022/09/04 12:50:13;;;;;;;7.22;4.65;;;;;;;26.29;45.24;94952.03;5132811;27;20245;-80
2022/09/04 12:52:58;;;;;;;4.47;3.72;;;;;;;26.41;44.37;94940.31;5133047;27;20189;-79
2022/09/04 12:55:34;;;;;;;5.90;4.18;;;;;;;26.74;44.75;94944.94;5132945;27;20193;-81